Time;durP1;ratioP1;P1;durP2;ratioP2;P2;SDS_P1;SDS_P2;PMS_P1;PMS_P2;Temp;Humidity;BMP_temperature;BMP_pressure;BME280_temperature;BME280_humidity;BME280_pressure;Samples;Min_cycle;Max_cycle;Signal;HPM_P1;HPM_P2
2023/11/26 00:08:36;;;;;;;;;;;2.80;99.90;;;;;;21152639;28;20061;-83
2023/11/26 00:18:37;;;;;;;;;;;2.60;99.90;;;;;;21154070;28;19943;-84
2023/11/26 00:28:38;;;;;;;;;;;2.80;99.90;;;;;;21135901;28;19997;-83
2023/11/26 00:38:39;;;;;;;;;;;2.80;99.90;;;;;;21152450;28;19939;-86
2023/11/26 00:48:40;;;;;;;;;;;2.80;99.90;;;;;;21136701;28;20263;-85
2023/11/26 00:58:40;;;;;;;;;;;2.70;99.90;;;;;;21159343;28;20297;-83
2023/11/26 01:08:41;;;;;;;;;;;2.50;99.90;;;;;;21164537;28;19935;-85
2023/11/26 01:18:42;;;;;;;;;;;2.60;99.90;;;;;;21146218;28;19912;-84
2023/11/26 01:28:43;;;;;;;;;;;2.60;99.90;;;;;;21162912;28;20378;-84
2023/11/26 01:38:44;;;;;;;;;;;2.60;99.90;;;;;;21144842;28;20349;-85
2023/11/26 01:48:45;;;;;;;;;;;2.60;99.90;;;;;;21160798;28;19916;-84
2023/11/26 01:58:46;;;;;;;;;;;2.50;99.90;;;;;;21142573;28;19955;-84
2023/11/26 02:08:47;;;;;;;;;;;2.50;99.90;;;;;;21139757;28;19915;-84
2023/11/26 02:18:48;;;;;;;;;;;2.50;99.90;;;;;;21139750;28;19919;-84
2023/11/26 02:28:49;;;;;;;;;;;2.60;99.90;;;;;;21155355;28;20374;-83
2023/11/26 02:38:52;;;;;;;;;;;2.60;99.90;;;;;;21137456;28;20285;-82
2023/11/26 02:48:53;;;;;;;;;;;2.60;99.90;;;;;;21136648;28;19915;-82
2023/11/26 02:58:53;;;;;;;;;;;2.50;99.90;;;;;;21134754;28;19964;-83
2023/11/26 03:08:59;;;;;;;;;;;2.40;99.90;;;;;;21150455;28;19920;-82
2023/11/26 03:19:00;;;;;;;;;;;2.40;99.90;;;;;;21131511;28;19912;-86
2023/11/26 03:29:01;;;;;;;;;;;2.40;99.90;;;;;;21149171;28;19923;-83
2023/11/26 03:39:02;;;;;;;;;;;2.50;99.90;;;;;;21130720;28;19915;-82
2023/11/26 03:49:02;;;;;;;;;;;2.50;99.90;;;;;;21146755;28;19971;-84
2023/11/26 03:59:03;;;;;;;;;;;2.40;99.90;;;;;;21129884;28;19911;-83
2023/11/26 04:09:05;;;;;;;;;;;2.40;99.90;;;;;;21128238;28;19920;-82
2023/11/26 04:19:06;;;;;;;;;;;2.40;99.90;;;;;;21127177;28;19956;-83
2023/11/26 04:29:06;;;;;;;;;;;2.40;99.90;;;;;;21128885;28;19919;-83
2023/11/26 04:39:08;;;;;;;;;;;2.40;99.90;;;;;;21160909;28;19919;-84
2023/11/26 04:49:08;;;;;;;;;;;2.40;99.90;;;;;;21142522;28;19919;-82
2023/11/26 04:59:09;;;;;;;;;;;2.30;99.90;;;;;;21158119;28;19919;-84
2023/11/26 05:09:13;;;;;;;;;;;2.30;99.90;;;;;;21139981;28;19922;-83
2023/11/26 05:19:14;;;;;;;;;;;2.30;99.90;;;;;;21142378;28;19912;-82
2023/11/26 05:29:15;;;;;;;;;;;2.30;99.90;;;;;;21160935;28;19923;-84
2023/11/26 05:39:16;;;;;;;;;;;2.30;99.90;;;;;;21167620;28;19955;-85
2023/11/26 05:49:17;;;;;;;;;;;2.30;99.90;;;;;;21170301;28;19923;-86
2023/11/26 05:59:20;;;;;;;;;;;2.30;99.90;;;;;;21156034;28;22413;-84
2023/11/26 06:09:21;;;;;;;;;;;2.40;99.90;;;;;;21169582;28;20536;-84
2023/11/26 06:19:22;;;;;;;;;;;2.40;99.90;;;;;;21152671;28;19934;-85
2023/11/26 06:29:23;;;;;;;;;;;2.40;99.90;;;;;;21155492;28;19974;-85
2023/11/26 06:39:24;;;;;;;;;;;2.40;99.90;;;;;;21153176;28;19922;-85
2023/11/26 06:49:27;;;;;;;;;;;2.30;99.90;;;;;;21149204;28;20006;-85
2023/11/26 06:59:28;;;;;;;;;;;2.30;99.90;;;;;;21151455;28;19916;-86
2023/11/26 07:09:29;;;;;;;;;;;2.40;99.90;;;;;;21166387;28;19916;-84
2023/11/26 07:19:29;;;;;;;;;;;2.40;99.90;;;;;;21146427;28;19927;-85
2023/11/26 07:29:33;;;;;;;;;;;2.50;99.90;;;;;;21166669;28;19915;-85
2023/11/26 07:39:34;;;;;;;;;;;2.60;99.90;;;;;;21185440;28;19916;-85
2023/11/26 07:49:36;;;;;;;;;;;2.60;99.90;;;;;;21143177;28;19922;-84
2023/11/26 07:59:36;;;;;;;;;;;2.80;99.90;;;;;;21144235;28;19965;-84
2023/11/26 08:09:37;;;;;;;;;;;2.90;99.90;;;;;;21173070;28;19916;-85
2023/11/26 08:19:40;;;;;;;;;;;2.90;99.90;;;;;;21174744;28;20006;-85
2023/11/26 08:29:44;;;;;;;;;;;3.10;99.90;;;;;;21161971;28;19916;-84
2023/11/26 08:39:45;;;;;;;;;;;3.10;99.90;;;;;;21193574;28;20393;-87
2023/11/26 08:49:47;;;;;;;;;;;3.40;99.90;;;;;;21198821;28;20006;-86
2023/11/26 08:59:50;;;;;;;;;;;3.90;99.90;;;;;;21225465;28;19911;-86
2023/11/26 09:09:51;;;;;;;;;;;3.70;99.90;;;;;;21224993;28;19915;-86
2023/11/26 09:19:53;;;;;;;;;;;4.00;99.90;;;;;;21221735;27;19918;-86
2023/11/26 09:29:54;;;;;;;;;;;4.40;99.90;;;;;;21234407;27;19930;-85
2023/11/26 09:39:54;;;;;;;;;;;3.80;99.90;;;;;;21220003;27;20385;-85
2023/11/26 09:49:55;;;;;;;;;;;3.70;99.90;;;;;;21212828;27;19922;-86
2023/11/26 09:59:56;;;;;;;;;;;3.80;99.90;;;;;;21225302;27;20458;-85
2023/11/26 10:10:09;;;;;;;;;;;4.10;99.90;;;;;;21204880;27;20003;-84
2023/11/26 10:20:17;;;;;;;;;;;3.70;99.90;;;;;;21180335;27;19961;-86
2023/11/26 10:30:26;;;;;;;;;;;3.70;99.90;;;;;;21240817;27;19915;-86
2023/11/26 10:40:26;;;;;;;;;;;4.70;99.90;;;;;;21225388;27;20393;-84
2023/11/26 10:50:28;;;;;;;;;;;4.70;99.90;;;;;;21248978;27;20271;-84
2023/11/26 11:00:32;;;;;;;;;;;4.30;99.90;;;;;;21246210;27;19916;-85
2023/11/26 11:10:46;;;;;;;;;;;5.00;99.90;;;;;;21228656;27;19922;-86
2023/11/26 11:21:05;;;;;;;;;;;4.60;99.90;;;;;;21242185;27;19912;-84
2023/11/26 11:31:07;;;;;;;;;;;4.10;99.90;;;;;;21263874;27;20290;-84
2023/11/26 11:41:13;;;;;;;;;;;4.10;99.90;;;;;;21222743;27;19915;-86
2023/11/26 11:51:30;;;;;;;;;;;4.50;99.90;;;;;;21237739;27;20267;-85
2023/11/26 12:01:31;;;;;;;;;;;4.80;99.90;;;;;;21217427;27;20002;-85
2023/11/26 12:11:41;;;;;;;;;;;4.20;99.90;;;;;;21222986;28;20385;-87
2023/11/26 12:21:42;;;;;;;;;;;4.50;99.90;;;;;;21244173;28;19946;-84
2023/11/26 12:31:42;;;;;;;;;;;4.40;99.90;;;;;;21233664;28;19964;-85
2023/11/26 12:41:44;;;;;;;;;;;4.50;99.90;;;;;;21232799;28;20381;-85
2023/11/26 12:51:45;;;;;;;;;;;4.60;99.90;;;;;;21237899;27;19919;-86
2023/11/26 13:01:47;;;;;;;;;;;4.50;99.90;;;;;;21266150;27;19998;-85
2023/11/26 13:11:48;;;;;;;;;;;4.60;99.90;;;;;;21252269;27;19962;-84
2023/11/26 13:21:50;;;;;;;;;;;4.80;99.90;;;;;;21261556;27;19916;-85
2023/11/26 13:31:50;;;;;;;;;;;5.10;99.90;;;;;;21238000;27;19922;-86
2023/11/26 13:41:51;;;;;;;;;;;4.70;99.90;;;;;;21270292;27;19991;-86
2023/11/26 13:51:52;;;;;;;;;;;4.60;99.90;;;;;;21239823;27;19923;-85
2023/11/26 14:01:52;;;;;;;;;;;4.40;99.90;;;;;;21235979;27;19964;-84
2023/11/26 14:11:54;;;;;;;;;;;4.50;99.90;;;;;;21186372;27;19916;-84
2023/11/26 14:21:54;;;;;;;;;;;4.70;99.90;;;;;;21190761;27;19918;-85
2023/11/26 14:31:55;;;;;;;;;;;4.60;99.90;;;;;;21218837;27;19915;-85
2023/11/26 14:41:56;;;;;;;;;;;4.40;99.90;;;;;;21110122;27;19915;-86
2023/11/26 14:51:56;;;;;;;;;;;4.30;99.90;;;;;;21252115;27;19958;-85
2023/11/26 15:02:00;;;;;;;;;;;4.20;99.90;;;;;;21245504;27;20304;-86
2023/11/26 15:12:01;;;;;;;;;;;3.90;99.90;;;;;;21246582;27;19915;-86
2023/11/26 15:22:06;;;;;;;;;;;3.90;99.90;;;;;;21230473;27;19915;-86
2023/11/26 15:32:07;;;;;;;;;;;4.00;99.90;;;;;;21229247;27;19989;-85
2023/11/26 15:42:07;;;;;;;;;;;3.90;99.90;;;;;;21186419;27;19940;-86
2023/11/26 15:52:08;;;;;;;;;;;3.50;99.90;;;;;;21237639;27;19919;-84
2023/11/26 16:02:09;;;;;;;;;;;3.50;99.90;;;;;;21262681;27;20305;-85
2023/11/26 16:12:10;;;;;;;;;;;3.40;99.90;;;;;;21241032;28;19937;-86
2023/11/26 16:22:13;;;;;;;;;;;3.40;99.90;;;;;;21241242;28;20286;-86
2023/11/26 16:32:14;;;;;;;;;;;3.30;99.90;;;;;;21226949;27;19915;-86
2023/11/26 16:42:16;;;;;;;;;;;3.20;99.90;;;;;;21212148;27;19984;-87
2023/11/26 16:52:17;;;;;;;;;;;3.00;99.90;;;;;;21087471;28;19919;-86
2023/11/26 17:02:22;;;;;;;;;;;2.90;99.90;;;;;;21108672;27;20362;-86
2023/11/26 17:12:23;;;;;;;;;;;2.80;99.90;;;;;;21215123;27;19916;-86
2023/11/26 17:22:23;;;;;;;;;;;2.70;99.90;;;;;;21170766;27;19919;-86
2023/11/26 17:32:24;;;;;;;;;;;2.70;99.90;;;;;;21161905;28;19916;-84
2023/11/26 17:42:25;;;;;;;;;;;2.30;99.90;;;;;;21162667;28;20002;-84
2023/11/26 17:52:26;;;;;;;;;;;2.20;99.90;;;;;;21167018;27;19923;-84
2023/11/26 18:02:27;;;;;;;;;;;1.70;99.90;;;;;;21148693;27;19919;-83
2023/11/26 18:12:28;;;;;;;;;;;1.80;99.90;;;;;;21152689;27;20018;-83
2023/11/26 18:22:29;;;;;;;;;;;1.50;99.90;;;;;;21153820;27;19912;-84
2023/11/26 18:32:30;;;;;;;;;;;1.50;99.90;;;;;;21166048;27;19942;-85
2023/11/26 18:42:31;;;;;;;;;;;1.70;99.90;;;;;;21157970;27;19916;-84
2023/11/26 18:52:32;;;;;;;;;;;1.40;99.90;;;;;;21153151;27;19915;-83
2023/11/26 19:02:32;;;;;;;;;;;1.60;99.90;;;;;;21136441;28;20298;-83
2023/11/26 19:12:33;;;;;;;;;;;1.50;99.90;;;;;;21138227;27;19949;-83
2023/11/26 19:22:34;;;;;;;;;;;1.30;99.90;;;;;;21135835;28;19912;-84
2023/11/26 19:32:34;;;;;;;;;;;1.40;99.90;;;;;;21157920;27;19916;-85
2023/11/26 19:42:35;;;;;;;;;;;0.90;99.90;;;;;;21155255;27;19915;-85
2023/11/26 19:52:36;;;;;;;;;;;0.80;99.90;;;;;;21156352;27;19923;-85
2023/11/26 20:02:37;;;;;;;;;;;0.90;99.90;;;;;;21150444;28;19978;-85
2023/11/26 20:12:37;;;;;;;;;;;0.60;99.90;;;;;;21149736;28;19916;-84
2023/11/26 20:22:39;;;;;;;;;;;0.10;99.90;;;;;;21133746;28;19912;-85
2023/11/26 20:32:40;;;;;;;;;;;0.10;99.90;;;;;;21132568;28;19920;-84
2023/11/26 20:42:41;;;;;;;;;;;0.10;99.90;;;;;;21151220;28;19916;-85
2023/11/26 20:52:41;;;;;;;;;;;0.20;99.90;;;;;;21132078;28;19922;-85
2023/11/26 21:02:42;;;;;;;;;;;0.20;99.90;;;;;;21169925;28;19990;-83
2023/11/26 21:12:43;;;;;;;;;;;0.10;99.90;;;;;;21138240;27;20382;-86
2023/11/26 21:22:46;;;;;;;;;;;0.10;99.90;;;;;;21152652;27;19912;-86
2023/11/26 21:32:47;;;;;;;;;;;-0.20;99.90;;;;;;21167294;27;20416;-87
2023/11/26 21:42:48;;;;;;;;;;;-0.30;99.90;;;;;;21151578;28;20302;-87
2023/11/26 21:52:48;;;;;;;;;;;-0.20;99.90;;;;;;21145524;28;20018;-87
2023/11/26 22:02:49;;;;;;;;;;;-0.40;99.90;;;;;;21140672;28;20357;-85
2023/11/26 22:12:50;;;;;;;;;;;-0.40;99.90;;;;;;21187733;27;19916;-84
2023/11/26 22:22:51;;;;;;;;;;;-0.20;99.90;;;;;;21179734;27;19959;-85
2023/11/26 22:32:52;;;;;;;;;;;-0.30;99.90;;;;;;21151903;27;20298;-84
2023/11/26 22:42:52;;;;;;;;;;;-0.40;99.90;;;;;;21165996;27;20302;-84
2023/11/26 22:52:53;;;;;;;;;;;-0.30;99.90;;;;;;21157663;27;20057;-84
2023/11/26 23:02:54;;;;;;;;;;;-0.30;99.90;;;;;;21173022;27;19985;-85
2023/11/26 23:12:55;;;;;;;;;;;0.00;99.90;;;;;;21152102;27;19915;-85
2023/11/26 23:22:55;;;;;;;;;;;0.00;99.90;;;;;;21177013;27;19912;-86
2023/11/26 23:32:59;;;;;;;;;;;0.20;99.90;;;;;;21167522;27;19920;-84
2023/11/26 23:42:59;;;;;;;;;;;0.20;99.90;;;;;;21200266;27;19920;-86
2023/11/26 23:53:00;;;;;;;;;;;0.30;99.90;;;;;;21202660;27;19915;-85
